Harvest Legend — V7SO6 — position and weather

sailwx.info

Track history (hours):
 
Tides and Currents Weather Stations Pressure Air Temp Water Temp Dewpoint Dewpoint Depression Visibility Wind Speed Wind Dir Waves Ship Positions

Harvest Legend

Last reported at 2017-Sep-05 06:10 UTC. Time now 2017-Sep-20 22:11 UTC.
Position N 30°21' E 032°21'.
Warning: this ship's position is 15 days out of date.

Length 186 m; draft 11.6 m.

Type: Cargo ship. MMSI: 538003695.

Date/timePositionNaut miles runAvg speedWind from/ knotsBaromVisibWave heightAir tempDewpointWater temp
2017-Sep-05 06:10N 30°21' E 032°21'1 2.6
2017-Sep-05 05:57N 30°21' E 032°21'0 0.3
2017-Sep-05 04:43N 30°21' E 032°21'2 6.9
2017-Sep-05 04:23N 30°23' E 032°22'6 9.9
2017-Sep-05 03:49N 30°29' E 032°21'5 9.6
2017-Sep-05 03:18N 30°33' E 032°18'10 7.6
2017-Sep-05 01:58N 30°43' E 032°20'5 8.8
2017-Sep-05 01:23N 30°48' E 032°19'4 8.9
2017-Sep-05 00:56N 30°52' E 032°19'4 9.1
2017-Sep-05 00:28N 30°57' E 032°19'4 9.6
2017-Sep-05 00:00N 31°01' E 032°19'5 9.5
2017-Sep-04 23:31N 31°06' E 032°18'5 9.4
2017-Sep-04 22:56N 31°11' E 032°20'12 7.6
2017-Sep-04 21:21N 31°23' E 032°22'3 1.8
2017-Sep-04 19:24N 31°22' E 032°18'0 0.0
2017-Sep-04 18:54N 31°22' E 032°18'0 0.0
2017-Sep-04 18:06N 31°22' E 032°18'0 0.0
2017-Sep-04 17:42N 31°22' E 032°18'0 0.0
2017-Sep-04 17:12N 31°22' E 032°18'0 0.0
2017-Sep-04 17:00N 31°22' E 032°18'0 0.0
2017-Sep-04 15:45N 31°22' E 032°18'0 0.0
2017-Sep-04 14:24N 31°22' E 032°18'0 0.0
2017-Sep-04 14:00N 31°22' E 032°18'0 0.0
2017-Sep-04 13:30N 31°22' E 032°18'0 0.0
2017-Sep-04 13:00N 31°22' E 032°18'0 0.0
2017-Sep-04 12:27N 31°22' E 032°18'0 0.0
2017-Sep-04 12:00N 31°22' E 032°18'0 0.0
2017-Sep-04 11:26N 31°22' E 032°18'0 0.0
2017-Sep-04 10:59N 31°22' E 032°18'0 0.0
2017-Sep-04 10:29N 31°22' E 032°18'0 0.0
2017-Sep-04 09:53N 31°22' E 032°18'0 0.0
2017-Sep-04 09:29N 31°22' E 032°18'0 0.0
2017-Sep-04 08:59N 31°22' E 032°18'0 0.0
2017-Sep-04 08:29N 31°22' E 032°18'0 0.0
2017-Sep-04 07:26N 31°22' E 032°18'0 0.0
2017-Sep-04 06:53N 31°22' E 032°18'0 0.0
2017-Sep-04 04:26N 31°22' E 032°18'0 0.0
2017-Sep-04 03:59N 31°22' E 032°18'0 0.0
2017-Sep-04 03:29N 31°22' E 032°18'0 0.0
2017-Sep-04 02:59N 31°22' E 032°18'0 0.0
2017-Sep-04 02:29N 31°22' E 032°18'0 0.0
2017-Sep-04 01:59N 31°22' E 032°18'0 0.0
2017-Sep-04 00:32N 31°22' E 032°18'0 0.1
2017-Sep-04 00:08N 31°22' E 032°18'0 0.2
2017-Sep-03 23:32N 31°22' E 032°18'0 0.2
2017-Sep-03 23:29N 31°22' E 032°18'0 0.0
2017-Sep-03 23:00N 31°22' E 032°18'1 3.0
2017-Sep-03 22:30N 31°23' E 032°17'16 8.0
2017-Sep-03 20:29N 31°37' E 032°07'5 9.4
2017-Sep-03 20:00N 31°40' E 032°03'5 9.3
2017-Sep-03 19:26N 31°44' E 031°59'8 9.5
2017-Sep-03 18:36N 31°49' E 031°51'5111.0
2017-Sep-03 14:00N 32°25' E 031°09'611.6
2017-Sep-03 13:28N 32°29' E 031°04'2211.3
2017-Sep-03 11:31N 32°45' E 030°46'111.1
2017-Sep-03 11:27N 32°46' E 030°46'6211.0
2017-Sep-03 05:49N 33°31' E 029°55'311.1
2017-Sep-03 05:30N 33°34' E 029°52'7910.9
2017-Sep-02 22:18N 34°31' E 028°47'1410.5
2017-Sep-02 21:00N 34°41' E 028°36'1410.5
2017-Sep-02 19:40N 34°51' E 028°24'1111.3
2017-Sep-02 18:44N 34°58' E 028°15'210.7
2017-Sep-02 18:30N 35°00' E 028°13'18110.6
2017-Sep-02 01:27N 37°24' E 025°55'511.0
2017-Sep-02 01:00N 37°27' E 025°50'611.5
2017-Sep-02 00:28N 37°33' E 025°48'611.9
2017-Sep-02 00:00N 37°38' E 025°45'611.8
2017-Sep-01 23:30N 37°43' E 025°43'611.9
2017-Sep-01 23:00N 37°49' E 025°40'11610.9
2017-Sep-01 12:21N 39°44' E 025°47'511.0
2017-Sep-01 11:57N 39°49' E 025°48'  
2017-Aug-28 11:52N 44°09' E 028°39'0 0.0
2017-Aug-28 11:28N 44°09' E 028°39'0 0.0
2017-Aug-28 10:58N 44°09' E 028°39'0 0.0
2017-Aug-28 10:28N 44°09' E 028°39'0 0.0
2017-Aug-28 09:58N 44°09' E 028°39'0 0.0
2017-Aug-28 09:28N 44°09' E 028°39'0 0.0
2017-Aug-28 08:55N 44°09' E 028°39'0 0.0
2017-Aug-28 08:28N 44°09' E 028°39'0 0.0
2017-Aug-28 07:58N 44°09' E 028°39'0 0.0
2017-Aug-28 07:25N 44°09' E 028°39'0 0.0
2017-Aug-28 06:58N 44°09' E 028°39'0 0.0
2017-Aug-28 06:28N 44°09' E 028°39'0 0.0
2017-Aug-28 05:58N 44°09' E 028°39'0 0.0
2017-Aug-28 05:28N 44°09' E 028°39'0 0.0
2017-Aug-28 04:58N 44°09' E 028°39'0 0.0
2017-Aug-28 04:28N 44°09' E 028°39'0 0.0
2017-Aug-28 03:58N 44°09' E 028°39'0 0.0
2017-Aug-28 03:28N 44°09' E 028°39'0 0.0
2017-Aug-28 02:58N 44°09' E 028°39'0 0.0
2017-Aug-28 02:31N 44°09' E 028°39'0 0.0
2017-Aug-28 01:57N 44°09' E 028°39'0 0.0
2017-Aug-28 01:27N 44°09' E 028°39'0 0.0
2017-Aug-28 01:00N 44°09' E 028°39'0 0.0
2017-Aug-28 00:30N 44°09' E 028°39'0 0.0
2017-Aug-28 00:00N 44°09' E 028°39'0 0.0
2017-Aug-27 23:30N 44°09' E 028°39'0 0.0
2017-Aug-27 23:00N 44°09' E 028°39'0 0.0
2017-Aug-27 22:30N 44°09' E 028°39'0 0.0
2017-Aug-27 22:00N 44°09' E 028°39'0 0.9
2017-Aug-27 21:30N 44°09' E 028°39'0 0.8
2017-Aug-27 21:00N 44°09' E 028°39'0 0.0
2017-Aug-27 20:30N 44°09' E 028°39'0 0.0
2017-Aug-27 20:00N 44°09' E 028°39'0 0.0
2017-Aug-27 19:27N 44°09' E 028°39'0 0.0
2017-Aug-27 19:00N 44°09' E 028°39'0 0.0
2017-Aug-27 18:27N 44°09' E 028°39'0 0.0
2017-Aug-27 18:00N 44°09' E 028°39'0 0.0
2017-Aug-27 17:30N 44°09' E 028°39'0 0.0
2017-Aug-27 17:00N 44°09' E 028°39'0 0.0
2017-Aug-27 16:30N 44°09' E 028°39'0 0.0
2017-Aug-27 15:57N 44°09' E 028°39'0 0.0
2017-Aug-27 15:30N 44°09' E 028°39'0 0.0
2017-Aug-27 15:00N 44°09' E 028°39'0 0.0
2017-Aug-27 14:30N 44°09' E 028°39'0 0.0
2017-Aug-27 14:00N 44°09' E 028°39'0 0.0
2017-Aug-27 13:30N 44°09' E 028°39'0 0.0
2017-Aug-27 13:00N 44°09' E 028°39'0 0.0
2017-Aug-27 12:30N 44°09' E 028°39'0 0.0
2017-Aug-27 12:00N 44°09' E 028°39'0 0.0
2017-Aug-27 11:30N 44°09' E 028°39'0 0.0
2017-Aug-27 10:57N 44°09' E 028°39'0 0.0
2017-Aug-27 10:30N 44°09' E 028°39'0 0.0
2017-Aug-27 10:00N 44°09' E 028°39'0 0.0
2017-Aug-27 09:30N 44°09' E 028°39'0 0.0
2017-Aug-27 08:57N 44°09' E 028°39'0 0.0
2017-Aug-27 08:24N 44°09' E 028°39'0 0.0
2017-Aug-27 07:57N 44°09' E 028°39'0 0.0
2017-Aug-27 07:30N 44°09' E 028°39'0 0.0
2017-Aug-27 07:00N 44°09' E 028°39'0 0.0
2017-Aug-27 06:30N 44°09' E 028°39'0 0.0
2017-Aug-27 06:00N 44°09' E 028°39'0 0.0
2017-Aug-27 05:30N 44°09' E 028°39'0 0.0
2017-Aug-27 04:54N 44°09' E 028°39'0 0.0
2017-Aug-27 04:30N 44°09' E 028°39'0 0.0
2017-Aug-27 03:57N 44°09' E 028°39'0 0.0
2017-Aug-27 03:30N 44°09' E 028°39'0 0.0
2017-Aug-27 03:00N 44°09' E 028°39'0 0.0
2017-Aug-27 02:30N 44°09' E 028°39'0 0.0
2017-Aug-27 02:00N 44°09' E 028°39'0 0.0
2017-Aug-27 01:30N 44°09' E 028°39'0 0.0
2017-Aug-27 00:59N 44°09' E 028°39'0 0.0
2017-Aug-27 00:29N 44°09' E 028°39'0 0.0
2017-Aug-26 23:59N 44°09' E 028°39'0 0.0
2017-Aug-26 23:29N 44°09' E 028°39'0 0.0
2017-Aug-26 22:59N 44°09' E 028°39'0 0.0
2017-Aug-26 22:29N 44°09' E 028°39'0 0.0
2017-Aug-26 21:59N 44°09' E 028°39'0 0.0
2017-Aug-26 21:29N 44°09' E 028°39'0 0.0
2017-Aug-26 20:59N 44°09' E 028°39'0 0.0
2017-Aug-26 20:29N 44°09' E 028°39'0 0.0
2017-Aug-26 19:59N 44°09' E 028°39'0 0.0
2017-Aug-26 19:26N 44°09' E 028°39'0 0.0
2017-Aug-26 18:59N 44°09' E 028°39'0 0.0
2017-Aug-26 18:29N 44°09' E 028°39'0 0.0
2017-Aug-26 17:56N 44°09' E 028°39'0 0.0
2017-Aug-26 17:29N 44°09' E 028°39'0 0.0
2017-Aug-26 16:59N 44°09' E 028°39'0 0.0
2017-Aug-26 16:29N 44°09' E 028°39'0 0.0
2017-Aug-26 15:59N 44°09' E 028°39'0 0.0
2017-Aug-26 15:29N 44°09' E 028°39'0 0.0
2017-Aug-26 14:59N 44°09' E 028°39'0 0.0
2017-Aug-26 13:56N 44°09' E 028°39'0 0.0
2017-Aug-26 13:29N 44°09' E 028°39'0 0.0
2017-Aug-26 12:59N 44°09' E 028°39'0 0.0
2017-Aug-26 12:23N 44°09' E 028°39'0 0.0
2017-Aug-26 11:59N 44°09' E 028°39'0 0.0
2017-Aug-26 11:29N 44°09' E 028°39'0 0.0
2017-Aug-26 10:59N 44°09' E 028°39'0 0.1
2017-Aug-26 10:30N 44°09' E 028°39'1 1.4
2017-Aug-26 10:00N 44°09' E 028°40'0 0.3
2017-Aug-26 09:28N 44°09' E 028°40'0 0.0
2017-Aug-26 08:58N 44°09' E 028°40'0 0.0
2017-Aug-26 08:28N 44°09' E 028°40'0 0.0
2017-Aug-26 07:58N 44°09' E 028°40'0 0.0
2017-Aug-26 07:28N 44°09' E 028°40'0 0.0
2017-Aug-26 06:58N 44°09' E 028°40'0 0.0
2017-Aug-26 06:28N 44°09' E 028°40'  
Track history (hours):
 
Tides and Currents Weather Stations Pressure Air Temp Water Temp Dewpoint Dewpoint Depression Visibility Wind Speed Wind Dir Waves Ship Positions

Harvest Legend

Last reported at 2017-Sep-05 06:10 UTC. Time now 2017-Sep-20 22:11 UTC.
Position N 30°21' E 032°21'.
Warning: this ship's position is 15 days out of date.

Length 186 m; draft 11.6 m.

Type: Cargo ship. MMSI: 538003695.

Date/timePositionNaut miles runAvg speedWind from/ knotsBaromVisibWave heightAir tempDewpointWater temp
2017-Sep-05 06:10N 30°21' E 032°21'1 2.6
2017-Sep-05 05:57N 30°21' E 032°21'0 0.3
2017-Sep-05 04:43N 30°21' E 032°21'2 6.9
2017-Sep-05 04:23N 30°23' E 032°22'6 9.9
2017-Sep-05 03:49N 30°29' E 032°21'5 9.6
2017-Sep-05 03:18N 30°33' E 032°18'10 7.6
2017-Sep-05 01:58N 30°43' E 032°20'5 8.8
2017-Sep-05 01:23N 30°48' E 032°19'4 8.9
2017-Sep-05 00:56N 30°52' E 032°19'4 9.1
2017-Sep-05 00:28N 30°57' E 032°19'4 9.6
2017-Sep-05 00:00N 31°01' E 032°19'5 9.5
2017-Sep-04 23:31N 31°06' E 032°18'5 9.4
2017-Sep-04 22:56N 31°11' E 032°20'12 7.6
2017-Sep-04 21:21N 31°23' E 032°22'3 1.8
2017-Sep-04 19:24N 31°22' E 032°18'0 0.0
2017-Sep-04 18:54N 31°22' E 032°18'0 0.0
2017-Sep-04 18:06N 31°22' E 032°18'0 0.0
2017-Sep-04 17:42N 31°22' E 032°18'0 0.0
2017-Sep-04 17:12N 31°22' E 032°18'0 0.0
2017-Sep-04 17:00N 31°22' E 032°18'0 0.0
2017-Sep-04 15:45N 31°22' E 032°18'0 0.0
2017-Sep-04 14:24N 31°22' E 032°18'0 0.0
2017-Sep-04 14:00N 31°22' E 032°18'0 0.0
2017-Sep-04 13:30N 31°22' E 032°18'0 0.0
2017-Sep-04 13:00N 31°22' E 032°18'0 0.0
2017-Sep-04 12:27N 31°22' E 032°18'0 0.0
2017-Sep-04 12:00N 31°22' E 032°18'0 0.0
2017-Sep-04 11:26N 31°22' E 032°18'0 0.0
2017-Sep-04 10:59N 31°22' E 032°18'0 0.0
2017-Sep-04 10:29N 31°22' E 032°18'0 0.0
2017-Sep-04 09:53N 31°22' E 032°18'0 0.0
2017-Sep-04 09:29N 31°22' E 032°18'0 0.0
2017-Sep-04 08:59N 31°22' E 032°18'0 0.0
2017-Sep-04 08:29N 31°22' E 032°18'0 0.0
2017-Sep-04 07:26N 31°22' E 032°18'0 0.0
2017-Sep-04 06:53N 31°22' E 032°18'0 0.0
2017-Sep-04 04:26N 31°22' E 032°18'0 0.0
2017-Sep-04 03:59N 31°22' E 032°18'0 0.0
2017-Sep-04 03:29N 31°22' E 032°18'0 0.0
2017-Sep-04 02:59N 31°22' E 032°18'0 0.0
2017-Sep-04 02:29N 31°22' E 032°18'0 0.0
2017-Sep-04 01:59N 31°22' E 032°18'0 0.0
2017-Sep-04 00:32N 31°22' E 032°18'0 0.1
2017-Sep-04 00:08N 31°22' E 032°18'0 0.2
2017-Sep-03 23:32N 31°22' E 032°18'0 0.2
2017-Sep-03 23:29N 31°22' E 032°18'0 0.0
2017-Sep-03 23:00N 31°22' E 032°18'1 3.0
2017-Sep-03 22:30N 31°23' E 032°17'16 8.0
2017-Sep-03 20:29N 31°37' E 032°07'5 9.4
2017-Sep-03 20:00N 31°40' E 032°03'5 9.3
2017-Sep-03 19:26N 31°44' E 031°59'8 9.5
2017-Sep-03 18:36N 31°49' E 031°51'5111.0
2017-Sep-03 14:00N 32°25' E 031°09'611.6
2017-Sep-03 13:28N 32°29' E 031°04'2211.3
2017-Sep-03 11:31N 32°45' E 030°46'111.1
2017-Sep-03 11:27N 32°46' E 030°46'6211.0
2017-Sep-03 05:49N 33°31' E 029°55'311.1
2017-Sep-03 05:30N 33°34' E 029°52'7910.9
2017-Sep-02 22:18N 34°31' E 028°47'1410.5
2017-Sep-02 21:00N 34°41' E 028°36'1410.5
2017-Sep-02 19:40N 34°51' E 028°24'1111.3
2017-Sep-02 18:44N 34°58' E 028°15'210.7
2017-Sep-02 18:30N 35°00' E 028°13'18110.6
2017-Sep-02 01:27N 37°24' E 025°55'511.0
2017-Sep-02 01:00N 37°27' E 025°50'611.5
2017-Sep-02 00:28N 37°33' E 025°48'611.9
2017-Sep-02 00:00N 37°38' E 025°45'611.8
2017-Sep-01 23:30N 37°43' E 025°43'611.9
2017-Sep-01 23:00N 37°49' E 025°40'11610.9
2017-Sep-01 12:21N 39°44' E 025°47'511.0
2017-Sep-01 11:57N 39°49' E 025°48'  
2017-Aug-28 11:52N 44°09' E 028°39'0 0.0
2017-Aug-28 11:28N 44°09' E 028°39'0 0.0
2017-Aug-28 10:58N 44°09' E 028°39'0 0.0
2017-Aug-28 10:28N 44°09' E 028°39'0 0.0
2017-Aug-28 09:58N 44°09' E 028°39'0 0.0
2017-Aug-28 09:28N 44°09' E 028°39'0 0.0
2017-Aug-28 08:55N 44°09' E 028°39'0 0.0
2017-Aug-28 08:28N 44°09' E 028°39'0 0.0
2017-Aug-28 07:58N 44°09' E 028°39'0 0.0
2017-Aug-28 07:25N 44°09' E 028°39'0 0.0
2017-Aug-28 06:58N 44°09' E 028°39'0 0.0
2017-Aug-28 06:28N 44°09' E 028°39'0 0.0
2017-Aug-28 05:58N 44°09' E 028°39'0 0.0
2017-Aug-28 05:28N 44°09' E 028°39'0 0.0
2017-Aug-28 04:58N 44°09' E 028°39'0 0.0
2017-Aug-28 04:28N 44°09' E 028°39'0 0.0
2017-Aug-28 03:58N 44°09' E 028°39'0 0.0
2017-Aug-28 03:28N 44°09' E 028°39'0 0.0
2017-Aug-28 02:58N 44°09' E 028°39'0 0.0
2017-Aug-28 02:31N 44°09' E 028°39'0 0.0
2017-Aug-28 01:57N 44°09' E 028°39'0 0.0
2017-Aug-28 01:27N 44°09' E 028°39'0 0.0
2017-Aug-28 01:00N 44°09' E 028°39'0 0.0
2017-Aug-28 00:30N 44°09' E 028°39'0 0.0
2017-Aug-28 00:00N 44°09' E 028°39'0 0.0
2017-Aug-27 23:30N 44°09' E 028°39'0 0.0
2017-Aug-27 23:00N 44°09' E 028°39'0 0.0
2017-Aug-27 22:30N 44°09' E 028°39'0 0.0
2017-Aug-27 22:00N 44°09' E 028°39'0 0.9
2017-Aug-27 21:30N 44°09' E 028°39'0 0.8
2017-Aug-27 21:00N 44°09' E 028°39'0 0.0
2017-Aug-27 20:30N 44°09' E 028°39'0 0.0
2017-Aug-27 20:00N 44°09' E 028°39'0 0.0
2017-Aug-27 19:27N 44°09' E 028°39'0 0.0
2017-Aug-27 19:00N 44°09' E 028°39'0 0.0
2017-Aug-27 18:27N 44°09' E 028°39'0 0.0
2017-Aug-27 18:00N 44°09' E 028°39'0 0.0
2017-Aug-27 17:30N 44°09' E 028°39'0 0.0
2017-Aug-27 17:00N 44°09' E 028°39'0 0.0
2017-Aug-27 16:30N 44°09' E 028°39'0 0.0
2017-Aug-27 15:57N 44°09' E 028°39'0 0.0
2017-Aug-27 15:30N 44°09' E 028°39'0 0.0
2017-Aug-27 15:00N 44°09' E 028°39'0 0.0
2017-Aug-27 14:30N 44°09' E 028°39'0 0.0
2017-Aug-27 14:00N 44°09' E 028°39'0 0.0
2017-Aug-27 13:30N 44°09' E 028°39'0 0.0
2017-Aug-27 13:00N 44°09' E 028°39'0 0.0
2017-Aug-27 12:30N 44°09' E 028°39'0 0.0
2017-Aug-27 12:00N 44°09' E 028°39'0 0.0
2017-Aug-27 11:30N 44°09' E 028°39'0 0.0
2017-Aug-27 10:57N 44°09' E 028°39'0 0.0
2017-Aug-27 10:30N 44°09' E 028°39'0 0.0
2017-Aug-27 10:00N 44°09' E 028°39'0 0.0
2017-Aug-27 09:30N 44°09' E 028°39'0 0.0
2017-Aug-27 08:57N 44°09' E 028°39'0 0.0
2017-Aug-27 08:24N 44°09' E 028°39'0 0.0
2017-Aug-27 07:57N 44°09' E 028°39'0 0.0
2017-Aug-27 07:30N 44°09' E 028°39'0 0.0
2017-Aug-27 07:00N 44°09' E 028°39'0 0.0
2017-Aug-27 06:30N 44°09' E 028°39'0 0.0
2017-Aug-27 06:00N 44°09' E 028°39'0 0.0
2017-Aug-27 05:30N 44°09' E 028°39'0 0.0
2017-Aug-27 04:54N 44°09' E 028°39'0 0.0
2017-Aug-27 04:30N 44°09' E 028°39'0 0.0
2017-Aug-27 03:57N 44°09' E 028°39'0 0.0
2017-Aug-27 03:30N 44°09' E 028°39'0 0.0
2017-Aug-27 03:00N 44°09' E 028°39'0 0.0
2017-Aug-27 02:30N 44°09' E 028°39'0 0.0
2017-Aug-27 02:00N 44°09' E 028°39'0 0.0
2017-Aug-27 01:30N 44°09' E 028°39'0 0.0
2017-Aug-27 00:59N 44°09' E 028°39'0 0.0
2017-Aug-27 00:29N 44°09' E 028°39'0 0.0
2017-Aug-26 23:59N 44°09' E 028°39'0 0.0
2017-Aug-26 23:29N 44°09' E 028°39'0 0.0
2017-Aug-26 22:59N 44°09' E 028°39'0 0.0
2017-Aug-26 22:29N 44°09' E 028°39'0 0.0
2017-Aug-26 21:59N 44°09' E 028°39'0 0.0
2017-Aug-26 21:29N 44°09' E 028°39'0 0.0
2017-Aug-26 20:59N 44°09' E 028°39'0 0.0
2017-Aug-26 20:29N 44°09' E 028°39'0 0.0
2017-Aug-26 19:59N 44°09' E 028°39'0 0.0
2017-Aug-26 19:26N 44°09' E 028°39'0 0.0
2017-Aug-26 18:59N 44°09' E 028°39'0 0.0
2017-Aug-26 18:29N 44°09' E 028°39'0 0.0
2017-Aug-26 17:56N 44°09' E 028°39'0 0.0
2017-Aug-26 17:29N 44°09' E 028°39'0 0.0
2017-Aug-26 16:59N 44°09' E 028°39'0 0.0
2017-Aug-26 16:29N 44°09' E 028°39'0 0.0
2017-Aug-26 15:59N 44°09' E 028°39'0 0.0
2017-Aug-26 15:29N 44°09' E 028°39'0 0.0
2017-Aug-26 14:59N 44°09' E 028°39'0 0.0
2017-Aug-26 13:56N 44°09' E 028°39'0 0.0
2017-Aug-26 13:29N 44°09' E 028°39'0 0.0
2017-Aug-26 12:59N 44°09' E 028°39'0 0.0
2017-Aug-26 12:23N 44°09' E 028°39'0 0.0
2017-Aug-26 11:59N 44°09' E 028°39'0 0.0
2017-Aug-26 11:29N 44°09' E 028°39'0 0.0
2017-Aug-26 10:59N 44°09' E 028°39'0 0.1
2017-Aug-26 10:30N 44°09' E 028°39'1 1.4
2017-Aug-26 10:00N 44°09' E 028°40'0 0.3
2017-Aug-26 09:28N 44°09' E 028°40'0 0.0
2017-Aug-26 08:58N 44°09' E 028°40'0 0.0
2017-Aug-26 08:28N 44°09' E 028°40'0 0.0
2017-Aug-26 07:58N 44°09' E 028°40'0 0.0
2017-Aug-26 07:28N 44°09' E 028°40'0 0.0
2017-Aug-26 06:58N 44°09' E 028°40'0 0.0
2017-Aug-26 06:28N 44°09' E 028°40'  

Dump ship's entire track history